createdAt,value
2023-01-19T00:00:39.654Z,99727.44
2023-01-19T00:03:16.320Z,99730.28
2023-01-19T00:05:44.566Z,99722.59
2023-01-19T00:08:15.696Z,99716.66
2023-01-19T00:10:45.979Z,99714.28
2023-01-19T00:13:14.736Z,99710.06
2023-01-19T00:15:41.720Z,99703.19
2023-01-19T00:18:10.547Z,99715.84
2023-01-19T00:20:41.353Z,99721.59
2023-01-19T00:23:09.500Z,99719.16
2023-01-19T00:25:42.493Z,99723.63
2023-01-19T00:28:15.918Z,99720.03
2023-01-19T00:30:43.811Z,99720.19
2023-01-19T00:33:15.473Z,99723.75
2023-01-19T00:35:42.735Z,99728.22
2023-01-19T00:38:11.943Z,99726.59
2023-01-19T00:40:38.842Z,99733.00
2023-01-19T00:43:05.776Z,99734.78
2023-01-19T00:45:33.611Z,99725.88
2023-01-19T00:48:00.549Z,99720.31
2023-01-19T00:50:29.878Z,99727.38
2023-01-19T00:52:58.287Z,99721.09
2023-01-19T00:55:25.344Z,99721.91
2023-01-19T00:57:52.234Z,99721.91
2023-01-19T01:00:20.276Z,99719.34
2023-01-19T01:02:50.234Z,99719.41
2023-01-19T01:05:18.101Z,99722.06
2023-01-19T01:07:46.137Z,99718.44
2023-01-19T01:10:23.310Z,99722.06
2023-01-19T01:12:57.399Z,99709.69
2023-01-19T01:15:29.927Z,99727.44
2023-01-19T01:17:56.918Z,99730.81
2023-01-19T01:20:28.670Z,99730.81
2023-01-19T01:22:57.714Z,99735.13
2023-01-19T01:25:27.630Z,99742.88
2023-01-19T01:27:55.510Z,99748.06
2023-01-19T01:30:22.752Z,99742.75
2023-01-19T01:32:50.193Z,99739.28
2023-01-19T01:35:17.375Z,99739.38
2023-01-19T01:37:44.738Z,99732.38
2023-01-19T01:40:15.873Z,99734.25
2023-01-19T01:42:42.957Z,99737.78
2023-01-19T01:45:39.482Z,99737.88
2023-01-19T01:48:30.402Z,99727.25
2023-01-19T01:51:25.940Z,99729.09
2023-01-19T01:54:03.481Z,99742.38
2023-01-19T01:56:42.503Z,99735.28
2023-01-19T01:59:26.847Z,99743.63
2023-01-19T02:02:25.565Z,99744.34
2023-01-19T02:05:04.795Z,99730.72
2023-01-19T02:08:19.808Z,99741.47
2023-01-19T02:11:06.785Z,99737.19
2023-01-19T02:13:39.880Z,99750.66
2023-01-19T02:16:09.244Z,99750.94
2023-01-19T02:18:37.510Z,99751.09
2023-01-19T02:21:12.782Z,99745.03
2023-01-19T02:23:45.385Z,99735.44
2023-01-19T02:26:22.042Z,99742.03
2023-01-19T02:28:57.605Z,99740.00
2023-01-19T02:31:27.301Z,99740.47
2023-01-19T02:33:55.967Z,99751.28
2023-01-19T02:36:38.367Z,99758.47
2023-01-19T02:39:09.742Z,99755.03
2023-01-19T02:41:48.993Z,99754.00
2023-01-19T02:44:19.938Z,99753.16
2023-01-19T02:46:47.471Z,99759.59
2023-01-19T02:49:14.575Z,99754.56
2023-01-19T02:51:44.505Z,99766.03
2023-01-19T02:54:32.490Z,99762.59
2023-01-19T02:57:23.913Z,99764.31
2023-01-19T03:00:28.732Z,99770.50
2023-01-19T03:03:08.004Z,99779.38
2023-01-19T03:05:45.623Z,99758.88
2023-01-19T03:08:38.396Z,99780.00
2023-01-19T03:11:12.663Z,99774.53
2023-01-19T03:14:04.054Z,99781.56
2023-01-19T03:16:45.604Z,99783.31
2023-01-19T03:19:44.159Z,99790.44
2023-01-19T03:22:28.387Z,99791.53
2023-01-19T03:25:01.757Z,99794.44
2023-01-19T03:27:35.224Z,99806.13
2023-01-19T03:30:13.143Z,99802.88
2023-01-19T03:32:53.317Z,99816.19
2023-01-19T03:35:24.588Z,99818.91
2023-01-19T03:37:55.912Z,99818.91
2023-01-19T03:40:30.298Z,99827.94
2023-01-19T03:42:58.844Z,99832.63
2023-01-19T03:45:26.887Z,99836.34
2023-01-19T03:47:55.441Z,99840.03
2023-01-19T03:50:29.598Z,99833.16
2023-01-19T03:53:13.531Z,99827.84
2023-01-19T03:55:46.469Z,99829.66
2023-01-19T03:58:13.636Z,99827.94
2023-01-19T04:00:40.772Z,99833.25
2023-01-19T04:03:14.612Z,99850.88
2023-01-19T04:05:41.929Z,99848.19
2023-01-19T04:08:08.924Z,99849.97
2023-01-19T04:10:36.844Z,99847.31
2023-01-19T04:13:04.965Z,99850.88
2023-01-19T04:15:32.628Z,99849.19
2023-01-19T04:18:02.539Z,99848.31
2023-01-19T04:20:29.750Z,99844.78
2023-01-19T04:23:01.095Z,99836.81
2023-01-19T04:25:29.133Z,99839.56
2023-01-19T04:27:58.256Z,99851.88
2023-01-19T04:30:27.416Z,99869.59
2023-01-19T04:32:55.517Z,99866.94
2023-01-19T04:35:23.665Z,99867.75
2023-01-19T04:37:50.599Z,99870.41
2023-01-19T04:40:17.617Z,99857.94
2023-01-19T04:42:46.035Z,99854.44
2023-01-19T04:45:14.042Z,99840.28
2023-01-19T04:47:42.784Z,99836.72
2023-01-19T04:50:11.428Z,99831.41
2023-01-19T04:52:38.453Z,99820.69
2023-01-19T04:55:06.885Z,99819.72
2023-01-19T04:57:33.840Z,99816.97
2023-01-19T05:00:01.168Z,99813.25
2023-01-19T05:02:28.144Z,99799.88
2023-01-19T05:04:54.956Z,99810.47
2023-01-19T05:07:21.821Z,99803.25
2023-01-19T05:09:48.707Z,99816.47
2023-01-19T05:12:16.445Z,99819.91
2023-01-19T05:14:43.571Z,99827.88
2023-01-19T05:17:10.992Z,99829.59
2023-01-19T05:19:39.012Z,99834.78
2023-01-19T05:22:07.284Z,99833.88
2023-01-19T05:24:34.164Z,99824.97
2023-01-19T05:27:01.934Z,99827.50
2023-01-19T05:29:28.794Z,99838.91
2023-01-19T05:31:55.790Z,99835.34
2023-01-19T05:34:22.619Z,99851.25
2023-01-19T05:36:49.524Z,99851.25
2023-01-19T05:39:16.389Z,99861.88
2023-01-19T05:41:45.422Z,99866.38
2023-01-19T05:44:13.017Z,99869.03
2023-01-19T05:46:40.869Z,99867.31
2023-01-19T05:49:10.141Z,99869.03
2023-01-19T05:51:45.153Z,99870.81
2023-01-19T05:54:15.411Z,99870.81
2023-01-19T05:56:43.400Z,99883.25
2023-01-19T05:59:10.961Z,99881.38
2023-01-19T06:01:39.824Z,99883.13
2023-01-19T06:04:08.965Z,99890.13
2023-01-19T06:06:35.840Z,99902.50
2023-01-19T06:09:02.675Z,99893.59
2023-01-19T06:11:29.565Z,99896.19
2023-01-19T06:13:56.336Z,99890.81
2023-01-19T06:16:23.283Z,99894.34
2023-01-19T06:18:50.097Z,99894.22
2023-01-19T06:21:17.077Z,99902.84
2023-01-19T06:23:43.935Z,99904.63
2023-01-19T06:26:11.368Z,99903.72
2023-01-19T06:28:38.237Z,99910.63
2023-01-19T06:31:05.367Z,99917.47
2023-01-19T06:33:32.279Z,99925.38
2023-01-19T06:35:59.513Z,99919.16
2023-01-19T06:38:26.478Z,99933.22
2023-01-19T06:40:58.978Z,99935.09
2023-01-19T06:43:27.158Z,99943.06
2023-01-19T06:45:54.818Z,99947.41
2023-01-19T06:48:22.378Z,99937.59
2023-01-19T06:50:50.157Z,99945.56
2023-01-19T06:53:19.811Z,99945.56
2023-01-19T06:55:47.059Z,99956.13
2023-01-19T06:58:14.240Z,99951.81
2023-01-19T07:00:41.384Z,99959.78
2023-01-19T07:03:09.102Z,99961.50
2023-01-19T07:05:36.649Z,99968.56
2023-01-19T07:08:04.358Z,99972.13
2023-01-19T07:11:23.673Z,99970.25
2023-01-19T07:13:18.551Z,99974.59
2023-01-19T07:15:45.436Z,99977.13
2023-01-19T07:18:12.447Z,99981.63
2023-01-19T07:20:39.392Z,99978.91
2023-01-19T07:23:06.278Z,99986.81
2023-01-19T07:25:33.175Z,99985.97
2023-01-19T07:28:00.702Z,99991.16
2023-01-19T07:30:28.791Z,99989.31
2023-01-19T07:32:58.075Z,99994.66
2023-01-19T07:35:26.127Z,99998.97
2023-01-19T07:37:53.067Z,99999.78
2023-01-19T07:40:19.967Z,100006.03
2023-01-19T07:42:52.052Z,100004.19
2023-01-19T07:45:20.951Z,100002.25
2023-01-19T07:47:49.763Z,100006.47
2023-01-19T07:50:21.410Z,100021.28
2023-01-19T07:52:53.434Z,100017.56
2023-01-19T07:55:20.844Z,100027.06
2023-01-19T07:57:52.003Z,100031.34
2023-01-19T08:00:22.093Z,100033.00
2023-01-19T08:02:51.887Z,100041.84
2023-01-19T08:05:20.554Z,100042.78
2023-01-19T08:07:48.384Z,100048.94
2023-01-19T08:10:18.480Z,100057.84
2023-01-19T08:12:45.293Z,100047.19
2023-01-19T08:15:12.253Z,100052.53
2023-01-19T08:17:39.090Z,100056.00
2023-01-19T08:20:08.636Z,100065.75
2023-01-19T08:22:35.643Z,100070.22
2023-01-19T08:25:02.577Z,100064.16
2023-01-19T08:27:30.761Z,100074.84
2023-01-19T08:29:58.907Z,100081.16
2023-01-19T08:32:25.833Z,100087.41
2023-01-19T08:34:52.677Z,100098.97
2023-01-19T08:37:19.555Z,100099.63
2023-01-19T08:39:46.432Z,100106.31
2023-01-19T08:42:13.239Z,100109.53
2023-01-19T08:44:49.704Z,100106.56
2023-01-19T08:47:23.816Z,100128.50
2023-01-19T08:49:50.671Z,100118.66
2023-01-19T08:52:17.486Z,100114.09
2023-01-19T08:54:44.349Z,100114.88
2023-01-19T08:57:11.241Z,100117.53
2023-01-19T08:59:38.216Z,100112.34
2023-01-19T09:02:05.007Z,100119.53
2023-01-19T09:04:34.475Z,100134.75
2023-01-19T09:07:01.545Z,100128.56
2023-01-19T09:09:28.464Z,100135.75
2023-01-19T09:11:56.380Z,100141.19
2023-01-19T09:14:23.278Z,100143.09
2023-01-19T09:16:50.147Z,100147.72
2023-01-19T09:19:17.051Z,100150.59
2023-01-19T09:21:43.916Z,100155.22
2023-01-19T09:24:10.840Z,100163.31
2023-01-19T09:26:39.235Z,100157.19
2023-01-19T09:29:06.184Z,100150.81
2023-01-19T09:31:33.102Z,100156.66
2023-01-19T09:34:00.022Z,100155.38
2023-01-19T09:36:27.548Z,100157.88
2023-01-19T09:38:54.399Z,100159.72
2023-01-19T09:41:22.831Z,100175.69
2023-01-19T09:44:00.990Z,100171.22
2023-01-19T09:46:41.465Z,100176.53
2023-01-19T09:49:31.536Z,100180.13
2023-01-19T09:51:59.359Z,100180.13
2023-01-19T09:54:55.123Z,100188.94
2023-01-19T09:57:25.235Z,100185.31
2023-01-19T09:59:57.905Z,100187.88
2023-01-19T10:02:24.923Z,100190.41
2023-01-19T10:05:26.298Z,100192.94
2023-01-19T10:08:46.609Z,100195.34
2023-01-19T10:11:52.695Z,100208.81
2023-01-19T10:14:44.572Z,100208.56
2023-01-19T10:17:45.205Z,100209.81
2023-01-19T10:20:28.187Z,100206.84
2023-01-19T10:22:59.332Z,100203.09
2023-01-19T10:25:27.932Z,100203.91
2023-01-19T10:27:54.943Z,100208.44
2023-01-19T10:30:26.266Z,100215.22
2023-01-19T10:32:53.776Z,100205.66
2023-01-19T10:35:25.182Z,100216.97
2023-01-19T10:38:02.898Z,100214.03
2023-01-19T10:40:53.670Z,100215.63
2023-01-19T10:43:35.649Z,100216.56
2023-01-19T10:46:08.178Z,100211.50
2023-01-19T10:48:42.011Z,100213.50
2023-01-19T10:51:11.139Z,100209.38
2023-01-19T10:53:38.571Z,100218.38
2023-01-19T10:56:16.335Z,100212.03
2023-01-19T10:58:43.459Z,100207.50
2023-01-19T11:01:27.187Z,100210.03
2023-01-19T11:04:00.072Z,100207.63
2023-01-19T11:06:30.108Z,100206.72
2023-01-19T11:09:16.081Z,100208.75
2023-01-19T11:11:52.638Z,100215.09
2023-01-19T11:14:34.610Z,100215.16
2023-01-19T11:17:01.533Z,100219.31
2023-01-19T11:19:33.014Z,100218.91
2023-01-19T11:22:27.479Z,100223.31
2023-01-19T11:25:03.656Z,100221.22
2023-01-19T11:27:36.122Z,100218.22
2023-01-19T11:30:22.838Z,100218.94
2023-01-19T11:32:49.702Z,100216.72
2023-01-19T11:35:36.684Z,100213.66
2023-01-19T11:38:20.889Z,100219.06
2023-01-19T11:40:58.235Z,100207.59
2023-01-19T11:43:39.821Z,100206.47
2023-01-19T11:46:16.729Z,100202.38
2023-01-19T11:49:02.844Z,100205.34
2023-01-19T11:52:01.404Z,100211.22
2023-01-19T11:54:52.272Z,100211.59
2023-01-19T11:57:20.148Z,100215.38
2023-01-19T11:59:47.364Z,100208.81
2023-01-19T12:02:36.234Z,100205.03
2023-01-19T12:05:13.193Z,100201.53
2023-01-19T12:07:42.640Z,100201.66
2023-01-19T12:10:31.419Z,100196.88
2023-01-19T12:12:59.318Z,100208.63
2023-01-19T12:15:41.931Z,100206.06
2023-01-19T12:18:20.996Z,100208.41
2023-01-19T12:20:53.167Z,100215.72
2023-01-19T12:23:55.977Z,100209.69
2023-01-19T12:26:49.425Z,100204.53
2023-01-19T12:29:21.933Z,100213.97
2023-01-19T12:32:13.553Z,100211.38
2023-01-19T12:34:44.196Z,100211.53
2023-01-19T12:37:40.507Z,100207.78
2023-01-19T12:40:26.122Z,100209.88
2023-01-19T12:43:03.235Z,100205.56
2023-01-19T12:45:39.902Z,100212.22
2023-01-19T12:48:25.231Z,100205.25
2023-01-19T12:50:52.444Z,100204.50
2023-01-19T12:53:22.556Z,100211.28
2023-01-19T12:56:01.067Z,100208.16
2023-01-19T12:58:28.864Z,100214.84
2023-01-19T13:01:34.270Z,100220.97
2023-01-19T13:04:32.612Z,100223.91
2023-01-19T13:07:05.788Z,100208.34
2023-01-19T13:09:38.572Z,100209.97
2023-01-19T13:12:14.428Z,100210.41
2023-01-19T13:14:43.427Z,100218.31
2023-01-19T13:17:26.501Z,100210.16
2023-01-19T13:20:19.191Z,100214.59
2023-01-19T13:23:34.138Z,100210.97
2023-01-19T13:26:15.435Z,100215.59
2023-01-19T13:28:48.287Z,100213.28
2023-01-19T13:31:16.368Z,100214.78
2023-01-19T13:33:59.045Z,100213.06
2023-01-19T13:36:37.535Z,100214.97
2023-01-19T13:39:16.570Z,100214.19
2023-01-19T13:41:47.411Z,100217.47
2023-01-19T13:44:27.480Z,100216.41
2023-01-19T13:46:59.879Z,100219.72
2023-01-19T13:49:33.672Z,100216.72
2023-01-19T13:52:19.221Z,100222.72
2023-01-19T13:55:02.458Z,100223.22
2023-01-19T13:57:43.809Z,100217.44
2023-01-19T14:00:16.593Z,100220.69
2023-01-19T14:03:04.885Z,100229.13
2023-01-19T14:05:38.098Z,100228.31
2023-01-19T14:08:13.606Z,100226.56
2023-01-19T14:11:02.532Z,100228.84
2023-01-19T14:13:34.872Z,100235.53
2023-01-19T14:16:08.652Z,100233.00
2023-01-19T14:18:36.689Z,100233.75
2023-01-19T14:21:11.856Z,100234.94
2023-01-19T14:24:17.104Z,100237.00
2023-01-19T14:26:49.154Z,100242.75
2023-01-19T14:29:32.745Z,100242.50
2023-01-19T14:32:25.190Z,100244.31
2023-01-19T14:35:07.248Z,100248.94
2023-01-19T14:37:38.219Z,100260.16
2023-01-19T14:40:25.380Z,100254.81
2023-01-19T14:43:06.273Z,100262.63
2023-01-19T14:45:47.427Z,100247.28
2023-01-19T14:48:21.801Z,100250.59
2023-01-19T14:51:02.800Z,100255.84
2023-01-19T14:53:37.540Z,100260.56
2023-01-19T14:56:06.801Z,100264.94
2023-01-19T14:58:49.561Z,100265.22
2023-01-19T15:01:16.481Z,100276.06
2023-01-19T15:03:45.427Z,100277.13
2023-01-19T15:06:18.068Z,100278.34
2023-01-19T15:08:46.195Z,100284.00
2023-01-19T15:11:34.011Z,100282.44
2023-01-19T15:14:02.386Z,100285.47
2023-01-19T15:16:33.124Z,100292.81
2023-01-19T15:19:00.575Z,100293.19
2023-01-19T15:21:27.619Z,100299.75
2023-01-19T15:23:55.438Z,100308.94
2023-01-19T15:26:26.354Z,100308.28
2023-01-19T15:28:55.713Z,100314.84
2023-01-19T15:31:26.147Z,100307.84
2023-01-19T15:33:53.192Z,100312.41
2023-01-19T15:36:24.566Z,100318.78
2023-01-19T15:38:51.486Z,100313.66
2023-01-19T15:41:28.671Z,100301.41
2023-01-19T15:43:57.401Z,100314.94
2023-01-19T15:46:25.875Z,100308.88
2023-01-19T15:48:53.998Z,100306.34
2023-01-19T15:51:27.741Z,100307.28
2023-01-19T15:53:55.932Z,100306.50
2023-01-19T15:56:27.185Z,100311.94
2023-01-19T15:58:55.837Z,100312.00
2023-01-19T16:01:34.025Z,100310.34
2023-01-19T16:04:07.124Z,100308.94
2023-01-19T16:06:34.242Z,100327.94
2023-01-19T16:09:01.764Z,100323.84
2023-01-19T16:11:32.066Z,100327.72
2023-01-19T16:13:59.172Z,100324.38
2023-01-19T16:16:28.092Z,100330.69
2023-01-19T16:18:56.210Z,100332.69
2023-01-19T16:21:24.068Z,100325.88
2023-01-19T16:23:51.128Z,100329.72
2023-01-19T16:26:34.399Z,100347.66
2023-01-19T16:29:08.770Z,100344.34
2023-01-19T16:31:41.638Z,100333.94
2023-01-19T16:34:09.796Z,100337.72
2023-01-19T16:36:40.493Z,100346.81
2023-01-19T16:39:12.759Z,100347.88
2023-01-19T16:41:40.912Z,100347.06
2023-01-19T16:44:09.844Z,100352.50
2023-01-19T16:46:40.895Z,100345.66
2023-01-19T16:49:15.698Z,100350.31
2023-01-19T16:51:43.036Z,100351.25
2023-01-19T16:54:14.823Z,100353.22
2023-01-19T16:56:42.328Z,100356.91
2023-01-19T16:59:14.335Z,100351.81
2023-01-19T17:01:44.514Z,100355.47
2023-01-19T17:04:13.497Z,100375.06
2023-01-19T17:06:40.585Z,100368.13
2023-01-19T17:09:09.459Z,100368.25
2023-01-19T17:11:37.372Z,100371.91
2023-01-19T17:14:15.682Z,100373.81
2023-01-19T17:16:43.910Z,100375.75
2023-01-19T17:19:16.589Z,100375.88
2023-01-19T17:21:51.314Z,100380.47
2023-01-19T17:24:18.976Z,100385.09
2023-01-19T17:26:49.643Z,100384.28
2023-01-19T17:29:17.021Z,100392.25
2023-01-19T17:31:44.433Z,100386.94
2023-01-19T17:34:11.402Z,100388.78
2023-01-19T17:36:38.427Z,100385.41
2023-01-19T17:39:09.033Z,100391.72
2023-01-19T17:41:36.274Z,100389.09
2023-01-19T17:44:05.638Z,100392.56
2023-01-19T17:46:37.318Z,100396.13
2023-01-19T17:49:07.462Z,100392.56
2023-01-19T17:51:35.043Z,100397.97
2023-01-19T17:54:01.839Z,100405.97
2023-01-19T17:56:36.686Z,100401.59
2023-01-19T17:59:06.565Z,100395.47
2023-01-19T18:01:37.121Z,100403.44
2023-01-19T18:04:04.187Z,100399.97
2023-01-19T18:06:31.001Z,100402.72
2023-01-19T18:09:01.481Z,100398.31
2023-01-19T18:11:29.099Z,100402.00
2023-01-19T18:13:56.399Z,100411.88
2023-01-19T18:16:27.410Z,100418.16
2023-01-19T18:18:56.859Z,100420.09
2023-01-19T18:21:28.259Z,100415.81
2023-01-19T18:24:05.345Z,100410.66
2023-01-19T18:26:34.946Z,100417.91
2023-01-19T18:29:01.910Z,100413.56
2023-01-19T18:31:28.910Z,100411.72
2023-01-19T18:33:55.884Z,100421.34
2023-01-19T18:36:23.073Z,100415.19
2023-01-19T18:38:50.157Z,100418.78
2023-01-19T18:41:20.737Z,100418.78
2023-01-19T18:43:48.767Z,100410.88
2023-01-19T18:46:16.300Z,100413.53
2023-01-19T18:48:43.597Z,100408.16
2023-01-19T18:51:15.299Z,100417.03
2023-01-19T18:53:43.435Z,100423.28
2023-01-19T18:56:15.773Z,100425.00
2023-01-19T18:58:44.074Z,100432.97
2023-01-19T19:01:32.539Z,100432.97
2023-01-19T19:04:00.138Z,100432.09
2023-01-19T19:06:27.585Z,100431.25
2023-01-19T19:08:58.015Z,100427.75
2023-01-19T19:11:26.524Z,100429.50
2023-01-19T19:13:56.365Z,100435.72
2023-01-19T19:16:24.273Z,100428.78
2023-01-19T19:18:51.159Z,100433.19
2023-01-19T19:21:21.213Z,100435.03
2023-01-19T19:23:54.425Z,100431.44
2023-01-19T19:26:23.002Z,100435.03
2023-01-19T19:28:49.865Z,100435.03
2023-01-19T19:31:21.051Z,100443.03
2023-01-19T19:33:50.921Z,100445.72
2023-01-19T19:36:18.764Z,100450.19
2023-01-19T19:38:47.567Z,100449.28
2023-01-19T19:41:22.127Z,100455.38
2023-01-19T19:43:49.862Z,100453.59
2023-01-19T19:46:20.152Z,100454.50
2023-01-19T19:48:48.738Z,100461.56
2023-01-19T19:51:23.606Z,100458.06
2023-01-19T19:53:51.814Z,100463.50
2023-01-19T19:56:22.336Z,100466.19
2023-01-19T19:58:51.454Z,100468.84
2023-01-19T20:01:25.353Z,100468.03
2023-01-19T20:03:54.237Z,100466.28
2023-01-19T20:06:24.957Z,100472.50
2023-01-19T20:08:55.092Z,100478.63
2023-01-19T20:11:28.505Z,100478.72
2023-01-19T20:13:55.455Z,100483.13
2023-01-19T20:16:23.821Z,100483.19
2023-01-19T20:18:54.245Z,100486.72
2023-01-19T20:21:36.449Z,100493.81
2023-01-19T20:24:09.739Z,100493.00
2023-01-19T20:26:42.277Z,100501.00
2023-01-19T20:29:11.070Z,100499.22
2023-01-19T20:31:43.817Z,100504.59
2023-01-19T20:34:14.386Z,100502.06
2023-01-19T20:36:42.300Z,100511.88
2023-01-19T20:39:10.984Z,100511.75
2023-01-19T20:41:43.682Z,100517.94
2023-01-19T20:44:20.856Z,100519.72
2023-01-19T20:46:48.726Z,100531.28
2023-01-19T20:49:16.054Z,100533.91
2023-01-19T20:51:45.195Z,100539.97
2023-01-19T20:54:15.383Z,100553.94
2023-01-19T20:56:42.472Z,100569.72
2023-01-19T20:59:11.691Z,100575.59
2023-01-19T21:01:40.912Z,100575.31
2023-01-19T21:04:09.031Z,100580.50
2023-01-19T21:06:36.316Z,100583.94
2023-01-19T21:09:04.422Z,100573.31
2023-01-19T21:11:31.495Z,100575.03
2023-01-19T21:13:58.624Z,100583.03
2023-01-19T21:16:29.127Z,100583.94
2023-01-19T21:18:56.356Z,100591.09
2023-01-19T21:21:30.826Z,100591.94
2023-01-19T21:24:01.267Z,100593.66
2023-01-19T21:26:33.586Z,100595.41
2023-01-19T21:29:02.489Z,100601.63
2023-01-19T21:31:30.237Z,100606.06
2023-01-19T21:33:58.197Z,100611.38
2023-01-19T21:36:26.109Z,100613.09
2023-01-19T21:38:55.356Z,100607.88
2023-01-19T21:41:22.435Z,100609.59
2023-01-19T21:43:49.318Z,100609.59
2023-01-19T21:46:29.543Z,100615.81
2023-01-19T21:49:00.011Z,100611.44
2023-01-19T21:51:35.033Z,100617.66
2023-01-19T21:54:04.224Z,100621.97
2023-01-19T21:56:31.780Z,100627.31
2023-01-19T21:59:02.169Z,100625.47
2023-01-19T22:01:30.508Z,100628.94
2023-01-19T22:03:58.945Z,100627.09
2023-01-19T22:06:27.215Z,100639.47
2023-01-19T22:08:54.933Z,100637.66
2023-01-19T22:11:22.095Z,100632.34
2023-01-19T22:13:49.035Z,100633.22
2023-01-19T22:16:19.903Z,100643.72
2023-01-19T22:18:53.956Z,100646.22
2023-01-19T22:21:24.802Z,100650.59
2023-01-19T22:23:55.485Z,100654.16
2023-01-19T22:26:23.433Z,100648.03
2023-01-19T22:28:59.028Z,100654.28
2023-01-19T22:31:29.166Z,100648.97
2023-01-19T22:33:57.375Z,100649.81
2023-01-19T22:36:28.923Z,100649.00
2023-01-19T22:38:58.626Z,100657.78
2023-01-19T22:41:29.715Z,100653.38
2023-01-19T22:44:00.575Z,100655.13
2023-01-19T22:46:31.127Z,100650.69
2023-01-19T22:48:59.554Z,100648.97
2023-01-19T22:51:29.466Z,100652.47
2023-01-19T22:53:56.815Z,100644.50
2023-01-19T22:56:29.582Z,100658.63
2023-01-19T22:58:58.237Z,100658.63
2023-01-19T23:01:28.937Z,100649.81
2023-01-19T23:03:56.377Z,100651.56
2023-01-19T23:06:27.126Z,100654.16
2023-01-19T23:09:04.888Z,100645.34
2023-01-19T23:11:39.168Z,100648.06
2023-01-19T23:14:09.553Z,100648.13
2023-01-19T23:16:36.611Z,100646.44
2023-01-19T23:19:05.233Z,100651.75
2023-01-19T23:21:32.875Z,100648.22
2023-01-19T23:24:02.944Z,100651.00
2023-01-19T23:26:31.673Z,100650.09
2023-01-19T23:29:01.768Z,100656.28
2023-01-19T23:31:32.533Z,100660.66
2023-01-19T23:34:03.900Z,100656.19
2023-01-19T23:36:33.873Z,100659.63
2023-01-19T23:39:06.377Z,100658.69
2023-01-19T23:41:34.662Z,100659.59
2023-01-19T23:44:02.117Z,100661.34
2023-01-19T23:46:30.011Z,100666.72
2023-01-19T23:48:56.975Z,100664.00
2023-01-19T23:51:28.398Z,100666.72
2023-01-19T23:53:57.705Z,100671.09
2023-01-19T23:56:36.100Z,100673.81
2023-01-19T23:59:06.042Z,100681.91
